»·PEaware :: N13W KBUR-KLAS

N13W :: KBUR-KLAS

FLIGHT INFORMATION

Flight Status: Arrived
Operator: Privately registered:
United States
More flights under this callsign
Pilot: Will N. (25416)
Aircraft: CESSNA 172 SKYHAWK
(C172)
More flights by this aircraft type
Origin: KBUR Bob Hope-Burbank
United States
Destination: KLAS McCarran Intl
United States
More flights between these airports :: More routes between these airports
Route: +VNY3 DAG CRESO4
File this flight plan on PilotEdge
Remarks: I5 rating
Altitude:
(Current/Filed)
7,000ft
Speed:
(Current/Filed)
120kts
Departed: 31-Aug-19 06:39 PM
Arrived: 31-Aug-19 08:38 PM
Distance/Time
Traveled:
193nm/1:59
Distance/Time
To Go:
Arrived

Flight Plot

Page will automatically refresh every two minutes.

Flight plan parsing failed; only flown route is shown


Map Options




Map Legend


Flown Route
Filed Route
Departure Airport
Arrival Airport
Navaid (VOR, NDB)
Fix

Horizontal Profiles

Position Reports

Time Latitude Longitude Heading Altitude Ground
Speed
31-Aug-19 18:20 34.200215 -118.358844 258 723ft 0kts
31-Aug-19 18:21 34.200215 -118.358844 258 723ft 0kts
31-Aug-19 18:22 34.200215 -118.358844 257 723ft 0kts
31-Aug-19 18:23 34.200215 -118.358844 257 723ft 0kts
31-Aug-19 18:24 34.200215 -118.358844 257 723ft 0kts
31-Aug-19 18:25 34.200215 -118.358844 257 723ft 0kts
31-Aug-19 18:26 34.200215 -118.358844 257 723ft 0kts
31-Aug-19 18:27 34.200215 -118.358844 257 723ft 0kts
31-Aug-19 18:28 34.200215 -118.358844 257 723ft 0kts
31-Aug-19 18:29 34.200215 -118.358844 257 723ft 0kts
31-Aug-19 18:30 34.200215 -118.358844 257 723ft 0kts
31-Aug-19 18:31 34.201364 -118.359542 346 730ft 12kts
31-Aug-19 18:32 34.203827 -118.359273 353 740ft 8kts
31-Aug-19 18:33 34.207477 -118.360280 348 757ft 20kts
31-Aug-19 18:34 34.211653 -118.361279 65 776ft 0kts
31-Aug-19 18:35 34.211675 -118.361224 62 776ft 0kts
31-Aug-19 18:36 34.211675 -118.361224 62 776ft 0kts
31-Aug-19 18:37 34.211675 -118.361224 62 776ft 0kts
31-Aug-19 18:38 34.206142 -118.358774 166 769ft 83kts
31-Aug-19 18:39 34.184273 -118.356165 218 1657ft 83kts
31-Aug-19 18:40 34.168342 -118.376931 222 2481ft 84kts
31-Aug-19 18:41 34.153560 -118.398333 267 3241ft 88kts
31-Aug-19 18:42 34.176290 -118.410012 352 3909ft 102kts
31-Aug-19 18:43 34.204755 -118.412794 352 4560ft 102kts
31-Aug-19 18:44 34.233265 -118.415527 352 5207ft 99kts
31-Aug-19 18:45 34.260410 -118.418043 352 5813ft 98kts
31-Aug-19 18:46 34.287618 -118.420544 352 6374ft 98kts
31-Aug-19 18:47 34.313561 -118.425951 352 6982ft 90kts
31-Aug-19 18:48 34.338326 -118.431616 352 7474ft 94kts
31-Aug-19 18:49 34.363618 -118.439373 324 7935ft 97kts
31-Aug-19 18:50 34.385728 -118.449114 40 8365ft 94kts
31-Aug-19 18:51 34.403674 -118.425461 48 8773ft 95kts
31-Aug-19 18:52 34.420455 -118.400327 50 9159ft 96kts
31-Aug-19 18:54 34.436940 -118.374618 50 9520ft 97kts
31-Aug-19 18:55 34.453944 -118.347708 49 9810ft 104kts
31-Aug-19 18:56 34.471486 -118.319809 49 10136ft 103kts
31-Aug-19 18:57 34.488955 -118.291979 49 10438ft 103kts
31-Aug-19 18:58 34.506393 -118.264166 49 10720ft 103kts
31-Aug-19 18:59 34.523925 -118.236168 50 10974ft 105kts
31-Aug-19 19:00 34.543289 -118.205212 50 10988ft 120kts
31-Aug-19 19:01 34.563136 -118.173380 50 10992ft 118kts
31-Aug-19 19:02 34.583274 -118.141121 50 10994ft 120kts
31-Aug-19 19:03 34.603505 -118.108685 50 10997ft 120kts
31-Aug-19 19:04 34.623763 -118.076174 50 10999ft 121kts
31-Aug-19 19:05 34.633745 -118.037151 78 10995ft 123kts
31-Aug-19 19:06 34.638777 -117.995809 79 10992ft 123kts
31-Aug-19 19:07 34.643423 -117.954411 80 10988ft 123kts
31-Aug-19 19:08 34.647982 -117.912897 80 10983ft 123kts
31-Aug-19 19:09 34.652477 -117.871651 80 10977ft 123kts
31-Aug-19 19:10 34.656976 -117.830188 80 10973ft 123kts
31-Aug-19 19:10 34.660703 -117.795745 80 10978ft 123kts
31-Aug-19 19:12 34.668364 -117.748332 71 10986ft 121kts
31-Aug-19 19:13 34.678293 -117.708908 70 10993ft 121kts
31-Aug-19 19:14 34.688313 -117.669686 70 11001ft 120kts
31-Aug-19 19:14 34.696645 -117.637145 70 11008ft 120kts
31-Aug-19 19:15 34.706597 -117.598263 70 11017ft 119kts
31-Aug-19 19:17 34.718167 -117.552995 70 11018ft 120kts
31-Aug-19 19:17 34.726404 -117.520719 70 11016ft 120kts
31-Aug-19 19:18 34.736351 -117.481693 70 11015ft 120kts
31-Aug-19 19:19 34.746227 -117.442888 70 11014ft 120kts
31-Aug-19 19:20 34.756069 -117.404159 70 11015ft 120kts
31-Aug-19 19:21 34.766016 -117.364957 70 11017ft 120kts
31-Aug-19 19:22 34.775934 -117.325818 71 11013ft 120kts
31-Aug-19 19:23 34.785855 -117.286606 71 11006ft 120kts
31-Aug-19 19:24 34.795820 -117.247153 71 10996ft 121kts
31-Aug-19 19:25 34.805800 -117.207583 71 10985ft 121kts
31-Aug-19 19:26 34.815570 -117.168805 71 11054ft 119kts
31-Aug-19 19:27 34.825453 -117.129500 71 11039ft 122kts
31-Aug-19 19:28 34.835460 -117.089627 71 11025ft 122kts
31-Aug-19 19:29 34.845446 -117.049783 71 11016ft 122kts
31-Aug-19 19:30 34.855417 -117.009945 71 11008ft 122kts
31-Aug-19 19:31 34.865417 -116.969931 71 11003ft 122kts
31-Aug-19 19:32 34.875361 -116.930078 71 11000ft 122kts
31-Aug-19 19:33 34.885267 -116.890316 71 10999ft 122kts
31-Aug-19 19:34 34.895137 -116.850639 71 10999ft 121kts
31-Aug-19 19:35 34.904911 -116.811289 71 10999ft 120kts
31-Aug-19 19:36 34.914646 -116.772040 71 10999ft 119kts
31-Aug-19 19:37 34.924267 -116.733188 71 10999ft 119kts
31-Aug-19 19:38 34.933874 -116.694336 71 10999ft 118kts
31-Aug-19 19:39 34.943391 -116.655784 72 10999ft 118kts
31-Aug-19 19:40 34.952912 -116.617163 72 11000ft 117kts
31-Aug-19 19:41 34.962828 -116.579076 64 11003ft 117kts
31-Aug-19 19:42 34.978079 -116.543568 62 11007ft 117kts
31-Aug-19 19:43 34.993786 -116.508031 63 11013ft 118kts
31-Aug-19 19:44 35.009809 -116.471880 63 11020ft 122kts
31-Aug-19 19:45 35.026279 -116.434747 63 11027ft 124kts
31-Aug-19 19:46 35.042999 -116.397029 63 11036ft 125kts
31-Aug-19 19:47 35.059754 -116.359211 63 11037ft 126kts
31-Aug-19 19:48 35.076484 -116.321410 63 11037ft 126kts
31-Aug-19 19:49 35.093326 -116.283313 63 11037ft 126kts
31-Aug-19 19:50 35.110115 -116.245286 63 11036ft 126kts
31-Aug-19 19:51 35.126965 -116.207082 63 11036ft 126kts
31-Aug-19 19:52 35.143669 -116.169166 63 11036ft 126kts
31-Aug-19 19:53 35.160325 -116.131317 63 11036ft 126kts
31-Aug-19 19:54 35.176977 -116.093433 63 11036ft 126kts
31-Aug-19 19:55 35.193708 -116.055330 63 11036ft 126kts
31-Aug-19 19:56 35.210286 -116.017532 63 11036ft 126kts
31-Aug-19 19:57 35.226358 -115.980833 63 11035ft 120kts
31-Aug-19 19:58 35.242288 -115.944439 63 11036ft 122kts
31-Aug-19 19:59 35.258448 -115.907472 63 11036ft 122kts
31-Aug-19 20:00 35.274323 -115.871115 63 11036ft 120kts
31-Aug-19 20:01 35.290029 -115.835109 63 11036ft 119kts
31-Aug-19 20:02 35.305679 -115.799193 63 11036ft 119kts
31-Aug-19 20:03 35.325974 -115.767143 49 11036ft 120kts
31-Aug-19 20:04 35.348723 -115.736576 49 11036ft 120kts
31-Aug-19 20:05 35.371344 -115.706364 49 11036ft 120kts
31-Aug-19 20:06 35.394410 -115.675530 45 11037ft 123kts
31-Aug-19 20:07 35.417751 -115.644387 45 11037ft 124kts
31-Aug-19 20:08 35.441249 -115.612984 45 11037ft 124kts
31-Aug-19 20:09 35.464654 -115.581673 45 11037ft 125kts
31-Aug-19 20:10 35.488245 -115.550082 45 11037ft 125kts
31-Aug-19 20:11 35.511569 -115.518823 45 11046ft 124kts
31-Aug-19 20:12 35.535170 -115.487195 45 11047ft 127kts
31-Aug-19 20:13 35.559418 -115.454657 45 11046ft 129kts
31-Aug-19 20:14 35.583837 -115.421853 45 11046ft 130kts
31-Aug-19 20:15 35.608197 -115.389100 45 11046ft 130kts
31-Aug-19 20:16 35.632681 -115.356135 45 11046ft 130kts
31-Aug-19 20:17 35.657867 -115.322140 46 10507ft 138kts
31-Aug-19 20:18 35.684422 -115.286317 46 9733ft 144kts
31-Aug-19 20:19 35.711608 -115.249612 47 8902ft 146kts
31-Aug-19 20:20 35.739007 -115.212578 47 8000ft 146kts
31-Aug-19 20:21 35.766311 -115.175637 47 7106ft 145kts
31-Aug-19 20:22 35.800514 -115.160051 11 7039ft 128kts
31-Aug-19 20:23 35.835365 -115.149483 11 7039ft 129kts
31-Aug-19 20:24 35.870330 -115.138920 11 7035ft 125kts
31-Aug-19 20:25 35.904624 -115.128543 11 7035ft 127kts
31-Aug-19 20:26 35.939296 -115.118091 11 7033ft 127kts
31-Aug-19 20:27 35.974009 -115.107658 11 7032ft 127kts
31-Aug-19 20:28 36.008528 -115.098049 3 7028ft 127kts
31-Aug-19 20:29 36.046225 -115.097478 351 6206ft 138kts
31-Aug-19 20:30 36.083675 -115.108043 351 5209ft 139kts
31-Aug-19 20:31 36.121945 -115.105661 6 4203ft 134kts
31-Aug-19 20:32 36.155237 -115.095719 355 3515ft 93kts
31-Aug-19 20:33 36.153216 -115.118592 234 3107ft 79kts
31-Aug-19 20:34 36.136967 -115.135734 204 2922ft 75kts
31-Aug-19 20:35 36.120255 -115.144704 202 2742ft 64kts
31-Aug-19 20:36 36.103114 -115.154514 204 2245ft 70kts
31-Aug-19 20:37 36.089463 -115.162343 219 2127ft 19kts
31-Aug-19 20:38 36.089580 -115.163983 294 2131ft 0kts
31-Aug-19 20:39 36.089735 -115.164519 244 2132ft 14kts
31-Aug-19 20:40 36.089710 -115.165322 351 2135ft 0kts
31-Aug-19 20:41 36.089710 -115.165322 351 2135ft 0kts
31-Aug-19 20:42 36.089710 -115.165322 351 2135ft 0kts
31-Aug-19 20:43 36.089710 -115.165322 351 2135ft 0kts
31-Aug-19 20:44 36.089710 -115.165322 351 2135ft 0kts

Navigation Log

Ident Type
Flight plan parsing failed, navigation log unavailable